KMFR

Rogue Valley International - Medford Airport

Medford, Oregon, USA
METAR KMFR 180253Z 00000KT 10SM CLR 02/M01 A3021 RMK AO2 SLP243 T00221011 53004
Observed Flight Rules
Dec-18 @ 02:53 UTC (16 minutes ago) Visual Flight Rules
Wind Visibility Clouds
Calm 10 miles
  • Clear skies
Temperatures Readings
Current 2°C / 36°F
Dewpoint -1°C / 30°F
Humidity 81%
Altimeter 30.21" Hg
Pressure 1024.3 hPa
Elevation 396
METAR KMFR 180253Z 00000KT 10SM CLR 02/M01 A3021 RMK AO2 SLP243 T00221011 53004
Observed Flight Rules
Dec-18 @ 02:53 UTC
(16 minutes ago)
VFR
Wind Visibility
Calm 10 miles
Clouds
  • Clear skies
Temperature Dewpoint
2°C / 36°F -1°C / 30°F
Humidity Altimeter Pressure
81% 30.21" Hg 1024.3 hPa